Time;durP1;ratioP1;P1;durP2;ratioP2;P2;SDS_P1;SDS_P2;PMS_P1;PMS_P2;Temp;Humidity;BMP_temperature;BMP_pressure;BME280_temperature;BME280_humidity;BME280_pressure;Samples;Min_cycle;Max_cycle;Signal;HPM_P1;HPM_P2
2022/06/11 00:02:01;;;;;;;10.43;6.10;;;17.70;99.90;;;;;;5031680;28;20493;-70
2022/06/11 00:04:32;;;;;;;14.70;6.82;;;17.70;99.90;;;;;;5015634;28;20041;-69
2022/06/11 00:07:03;;;;;;;11.93;6.07;;;17.60;99.90;;;;;;5031978;28;20078;-69
2022/06/11 00:09:30;;;;;;;13.55;6.10;;;17.60;99.90;;;;;;5031687;28;20077;-69
2022/06/11 00:11:57;;;;;;;11.15;5.70;;;17.60;99.90;;;;;;5031614;28;20049;-69
2022/06/11 00:14:26;;;;;;;11.35;5.45;;;17.60;99.90;;;;;;5031682;28;20042;-69
2022/06/11 00:16:52;;;;;;;10.35;4.60;;;17.50;99.90;;;;;;5031887;28;20049;-69
2022/06/11 00:19:22;;;;;;;9.82;4.82;;;17.50;99.90;;;;;;5031780;28;20144;-69
2022/06/11 00:21:51;;;;;;;14.50;4.40;;;17.50;99.90;;;;;;5015395;28;20399;-69
2022/06/11 00:24:18;;;;;;;8.13;3.50;;;17.50;99.90;;;;;;5031614;28;20037;-69
2022/06/11 00:26:44;;;;;;;8.63;2.92;;;17.50;99.90;;;;;;5015166;28;20042;-69
2022/06/11 00:29:11;;;;;;;6.35;2.50;;;17.50;99.90;;;;;;5033594;28;20572;-69
2022/06/11 00:31:37;;;;;;;6.95;2.60;;;17.40;99.90;;;;;;5035361;28;20045;-69
2022/06/11 00:34:03;;;;;;;9.00;2.78;;;17.40;99.90;;;;;;5035372;28;20068;-69
2022/06/11 00:36:29;;;;;;;7.25;2.22;;;17.40;99.90;;;;;;5035303;28;20040;-69
2022/06/11 00:38:56;;;;;;;8.55;2.40;;;17.40;99.90;;;;;;5035242;28;20044;-69
2022/06/11 00:41:25;;;;;;;8.85;2.45;;;17.30;99.90;;;;;;5035233;28;20049;-69
2022/06/11 00:43:53;;;;;;;7.13;2.20;;;17.30;99.90;;;;;;5035495;28;20068;-69
2022/06/11 00:46:37;;;;;;;8.00;2.47;;;17.30;99.90;;;;;;5059447;22;20016;-75
2022/06/11 00:49:32;;;;;;;7.05;2.22;;;17.30;99.90;;;;;;5035201;28;20037;-75
2022/06/11 00:52:20;;;;;;;9.73;2.17;;;17.20;99.90;;;;;;5011393;28;20053;-76
2022/06/11 00:54:57;;;;;;;7.75;2.35;;;17.10;99.90;;;;;;5035088;28;20072;-75
2022/06/11 00:57:24;;;;;;;8.23;2.38;;;17.10;99.90;;;;;;5018485;28;20044;-75
2022/06/11 00:59:54;;;;;;;6.05;2.30;;;17.00;99.90;;;;;;5034910;28;20044;-75
2022/06/11 01:02:20;;;;;;;7.45;2.50;;;17.00;99.90;;;;;;5035198;28;20095;-76
2022/06/11 01:04:51;;;;;;;8.73;2.58;;;16.90;99.90;;;;;;5034849;28;20041;-76
2022/06/11 01:07:40;;;;;;;7.38;2.40;;;16.90;99.90;;;;;;5034762;28;20404;-75
2022/06/11 01:10:20;;;;;;;8.95;2.60;;;16.90;99.90;;;;;;5035025;28;20045;-76
2022/06/11 01:13:10;;;;;;;5.70;2.17;;;16.80;99.90;;;;;;5034686;28;20052;-76
2022/06/11 01:15:46;;;;;;;7.22;2.33;;;16.70;99.90;;;;;;5018500;28;20029;-76
2022/06/11 01:18:28;;;;;;;5.93;2.20;;;16.70;99.90;;;;;;5018067;28;20037;-75
2022/06/11 01:21:13;;;;;;;11.65;3.05;;;16.60;99.90;;;;;;5018204;28;20044;-76
2022/06/11 01:23:53;;;;;;;8.48;2.95;;;16.50;99.90;;;;;;5018045;28;20512;-76
2022/06/11 01:27:11;;;;;;;7.70;2.90;;;16.50;99.90;;;;;;5034392;28;20041;-75
2022/06/11 01:29:49;;;;;;;8.60;3.35;;;16.50;99.90;;;;;;5014203;28;20573;-75
2022/06/11 01:32:34;;;;;;;6.95;3.08;;;16.40;99.90;;;;;;5017795;28;20515;-76
2022/06/11 01:35:30;;;;;;;10.52;3.38;;;16.40;99.90;;;;;;5017878;28;20037;-76
2022/06/11 01:38:03;;;;;;;11.63;3.63;;;16.40;99.90;;;;;;4978251;28;20508;-75
2022/06/11 01:41:17;;;;;;;9.27;3.65;;;16.30;99.90;;;;;;5034182;28;20037;-76
2022/06/11 01:43:44;;;;;;;;;;;16.20;99.90;;;;;;5017424;28;20051;-76
2022/06/11 01:46:35;;;;;;;6.68;3.40;;;16.10;99.90;;;;;;5033907;28;20011;-75
2022/06/11 01:49:06;;;;;;;7.68;3.55;;;16.10;99.90;;;;;;5017922;28;20107;-76
2022/06/11 01:51:55;;;;;;;10.68;3.72;;;16.10;99.90;;;;;;5034250;28;20455;-76
2022/06/11 01:54:35;;;;;;;7.63;3.38;;;16.10;99.90;;;;;;5034219;28;20184;-75
2022/06/11 01:57:13;;;;;;;7.68;3.38;;;16.10;99.90;;;;;;5034105;28;20044;-75
2022/06/11 01:59:41;;;;;;;11.23;3.70;;;16.00;99.90;;;;;;5017302;28;20493;-75
2022/06/11 02:02:37;;;;;;;9.50;4.65;;;16.00;99.90;;;;;;5033745;28;20037;-75
2022/06/11 02:05:45;;;;;;;13.60;6.55;;;15.90;99.90;;;;;;5033967;28;20585;-76
2022/06/11 02:08:38;;;;;;;11.57;6.88;;;15.90;99.90;;;;;;5017107;28;20065;-75
2022/06/11 02:11:18;;;;;;;8.63;6.95;;;15.80;99.90;;;;;;5033910;28;20045;-76
2022/06/11 02:14:13;;;;;;;12.73;6.72;;;15.70;99.90;;;;;;5033549;28;20060;-76
2022/06/11 02:16:49;;;;;;;13.93;7.40;;;15.70;99.90;;;;;;5033479;28;20037;-75
2022/06/11 02:19:20;;;;;;;13.55;7.85;;;15.70;99.90;;;;;;5017019;28;20033;-76
2022/06/11 02:21:53;;;;;;;14.07;8.35;;;15.70;99.90;;;;;;5016985;28;20044;-76
2022/06/11 02:24:27;;;;;;;12.73;7.88;;;15.70;99.90;;;;;;5016912;28;20095;-75
2022/06/11 02:26:56;;;;;;;13.13;8.18;;;15.70;99.90;;;;;;5033249;28;20405;-75
2022/06/11 02:29:23;;;;;;;15.15;7.82;;;15.60;99.90;;;;;;5033277;28;20044;-75
2022/06/11 02:31:57;;;;;;;11.90;7.88;;;15.50;99.90;;;;;;5033185;28;20064;-75
2022/06/11 02:34:25;;;;;;;13.35;7.50;;;15.50;99.90;;;;;;5033210;28;20048;-75
2022/06/11 02:37:02;;;;;;;13.50;8.90;;;15.40;99.90;;;;;;5016800;28;20374;-75
2022/06/11 02:39:31;;;;;;;13.50;7.93;;;15.50;99.90;;;;;;5016743;28;20068;-75
2022/06/11 02:41:57;;;;;;;14.13;8.45;;;15.50;99.90;;;;;;5033307;28;20048;-76
2022/06/11 02:44:23;;;;;;;17.00;8.07;;;15.50;99.90;;;;;;5033017;28;20072;-76
2022/06/11 02:46:50;;;;;;;9.30;7.28;;;15.50;99.90;;;;;;5032763;28;20076;-75
2022/06/11 02:49:28;;;;;;;15.15;6.75;;;15.60;99.90;;;;;;5033198;28;20091;-76
2022/06/11 02:51:58;;;;;;;14.05;5.30;;;15.60;99.90;;;;;;5032260;28;20548;-76
2022/06/11 02:54:25;;;;;;;14.07;5.95;;;15.60;99.90;;;;;;5032767;28;20453;-75
2022/06/11 02:56:52;;;;;;;11.90;5.60;;;15.70;99.90;;;;;;5016304;28;20041;-75
2022/06/11 02:59:20;;;;;;;13.43;6.55;;;15.70;99.90;;;;;;5016174;28;20509;-75
2022/06/11 03:01:47;;;;;;;16.13;6.05;;;15.70;99.90;;;;;;5032655;28;20094;-76
2022/06/11 03:04:13;;;;;;;11.18;5.90;;;15.60;99.90;;;;;;5032611;28;20049;-76
2022/06/11 03:06:42;;;;;;;16.15;6.95;;;15.60;99.90;;;;;;5032560;28;20037;-75
2022/06/11 03:09:11;;;;;;;13.15;5.97;;;15.60;99.90;;;;;;5032498;28;20041;-75
2022/06/11 03:11:37;;;;;;;12.68;6.45;;;15.60;99.90;;;;;;5032680;28;20091;-75
2022/06/11 03:14:03;;;;;;;12.77;6.30;;;15.50;99.90;;;;;;5032477;28;20512;-75
2022/06/11 03:16:29;;;;;;;14.02;6.47;;;15.40;99.90;;;;;;5016143;28;20030;-75
2022/06/11 03:18:55;;;;;;;11.52;6.43;;;15.40;99.90;;;;;;5032374;28;20577;-75
2022/06/11 03:21:20;;;;;;;14.95;6.55;;;15.40;99.90;;;;;;5016118;28;20092;-75
2022/06/11 03:23:46;;;;;;;14.82;7.55;;;15.40;99.90;;;;;;5032302;28;20124;-75
2022/06/11 03:26:12;;;;;;;15.88;7.50;;;15.40;99.90;;;;;;5015721;28;20124;-75
2022/06/11 03:28:38;;;;;;;13.52;6.75;;;15.30;99.90;;;;;;5015779;28;20041;-75
2022/06/11 03:31:06;;;;;;;14.23;7.68;;;15.30;99.90;;;;;;5015731;28;20081;-75
2022/06/11 03:33:35;;;;;;;14.43;6.88;;;15.30;99.90;;;;;;5032065;28;20413;-75
2022/06/11 03:36:04;;;;;;;12.32;7.28;;;15.20;99.90;;;;;;5032009;28;20060;-75
2022/06/11 03:38:29;;;;;;;13.77;7.65;;;15.20;99.90;;;;;;5032345;28;20086;-75
2022/06/11 03:40:55;;;;;;;16.27;7.70;;;15.10;99.90;;;;;;5032281;28;20041;-75
2022/06/11 03:43:20;;;;;;;12.15;7.95;;;15.10;99.90;;;;;;5015576;28;20456;-75
2022/06/11 03:45:46;;;;;;;13.75;8.45;;;15.00;99.90;;;;;;5032250;28;20044;-75
2022/06/11 03:48:11;;;;;;;13.27;7.70;;;14.90;99.90;;;;;;5031983;28;20497;-75
2022/06/11 03:50:39;;;;;;;15.30;8.32;;;14.90;99.90;;;;;;5031923;28;20457;-75
2022/06/11 03:53:08;;;;;;;15.88;9.27;;;14.90;99.90;;;;;;5015484;28;20037;-75
2022/06/11 03:55:34;;;;;;;14.65;9.27;;;14.90;99.90;;;;;;5032124;28;20041;-75
2022/06/11 03:58:01;;;;;;;16.17;9.70;;;14.90;99.90;;;;;;5031826;28;20040;-75
2022/06/11 04:03:13;;;;;;;16.77;9.95;;;14.90;99.90;;;;;;5032477;28;20505;-76
2022/06/11 04:05:41;;;;;;;12.65;8.88;;;14.90;99.90;;;;;;5035960;28;20041;-76
2022/06/11 04:08:07;;;;;;;17.23;9.35;;;14.90;99.90;;;;;;5036048;28;20052;-75
2022/06/11 04:10:33;;;;;;;18.25;9.80;;;15.00;99.90;;;;;;5035839;28;20052;-75
2022/06/11 04:12:59;;;;;;;12.70;9.30;;;15.00;99.90;;;;;;5035752;28;20128;-75
2022/06/11 04:15:25;;;;;;;16.05;9.15;;;15.00;99.90;;;;;;5035784;28;20033;-75
2022/06/11 04:17:52;;;;;;;15.25;8.80;;;15.00;99.90;;;;;;5019119;28;20068;-75
2022/06/11 04:20:17;;;;;;;17.45;8.52;;;15.00;99.90;;;;;;5035668;28;20409;-75
2022/06/11 04:22:43;;;;;;;14.40;9.10;;;15.10;99.90;;;;;;5019170;28;20038;-75
2022/06/11 04:25:13;;;;;;;16.73;8.50;;;15.10;99.90;;;;;;5019054;28;20041;-75
2022/06/11 04:27:40;;;;;;;14.18;8.32;;;15.10;99.90;;;;;;5035773;28;20052;-75
2022/06/11 04:30:07;;;;;;;15.98;7.95;;;15.10;99.90;;;;;;5035710;28;20041;-75
2022/06/11 04:32:32;;;;;;;14.18;7.80;;;15.20;99.90;;;;;;5035528;28;20417;-76
2022/06/11 04:34:58;;;;;;;16.55;7.50;;;15.20;99.90;;;;;;5035689;28;20042;-76
2022/06/11 04:37:28;;;;;;;15.40;7.57;;;15.30;99.90;;;;;;5035599;28;20124;-75
2022/06/11 04:39:55;;;;;;;17.60;7.38;;;15.30;99.90;;;;;;5035329;28;20045;-75
2022/06/11 04:42:22;;;;;;;12.95;6.63;;;15.30;99.90;;;;;;5035276;28;20045;-75
2022/06/11 04:44:47;;;;;;;18.00;7.10;;;15.30;99.90;;;;;;5035263;28;20044;-75
2022/06/11 04:47:21;;;;;;;15.43;6.78;;;15.30;99.90;;;;;;5034990;28;20038;-75
2022/06/11 04:49:48;;;;;;;16.05;6.13;;;15.40;99.90;;;;;;5035231;28;20053;-75
2022/06/11 04:52:14;;;;;;;13.98;6.00;;;15.40;99.90;;;;;;5035046;28;20042;-76
2022/06/11 04:54:40;;;;;;;18.48;6.25;;;15.40;99.90;;;;;;5035127;28;20115;-76
2022/06/11 04:57:06;;;;;;;13.38;5.15;;;15.40;99.90;;;;;;5034938;28;20069;-75
2022/06/11 04:59:32;;;;;;;16.65;5.53;;;15.50;99.90;;;;;;5034989;28;20069;-75
2022/06/11 05:01:59;;;;;;;13.43;5.07;;;15.50;99.90;;;;;;5034946;28;20095;-76
2022/06/11 05:04:25;;;;;;;14.80;4.80;;;15.50;99.90;;;;;;5034892;28;20527;-76
2022/06/11 05:06:51;;;;;;;15.75;4.78;;;15.50;99.90;;;;;;5034831;28;20045;-75
2022/06/11 05:09:19;;;;;;;15.93;4.88;;;15.60;99.90;;;;;;5018322;28;20489;-75
2022/06/11 05:11:46;;;;;;;13.68;4.05;;;15.60;99.90;;;;;;5018422;28;20045;-75
2022/06/11 05:14:12;;;;;;;19.65;4.43;;;15.60;99.90;;;;;;5034263;28;20489;-76
2022/06/11 05:16:41;;;;;;;17.65;3.88;;;15.70;99.90;;;;;;5034556;28;20073;-75
2022/06/11 05:19:07;;;;;;;15.38;3.85;;;15.80;99.90;;;;;;5034631;28;20120;-75
2022/06/11 05:21:33;;;;;;;15.38;3.85;;;15.80;99.90;;;;;;5018111;28;20104;-76
2022/06/11 05:23:58;;;;;;;21.55;4.53;;;15.80;99.90;;;;;;5034769;28;20045;-75
2022/06/11 05:26:30;;;;;;;16.65;4.05;;;15.90;99.90;;;;;;5034361;28;20045;-75
2022/06/11 05:28:56;;;;;;;20.60;4.50;;;15.90;99.90;;;;;;5034478;28;20052;-75
2022/06/11 05:31:21;;;;;;;14.05;3.90;;;15.90;99.90;;;;;;5034318;28;20033;-75
2022/06/11 05:33:48;;;;;;;18.20;4.38;;;15.90;99.90;;;;;;5034259;28;20063;-75
2022/06/11 05:36:15;;;;;;;16.80;4.18;;;16.00;99.90;;;;;;5017688;28;20379;-75
2022/06/11 05:38:42;;;;;;;13.55;3.70;;;16.00;99.90;;;;;;5017764;28;20037;-75
2022/06/11 05:41:07;;;;;;;18.15;4.07;;;16.10;99.90;;;;;;5034216;28;20442;-75
2022/06/11 05:43:33;;;;;;;21.77;4.63;;;16.10;99.90;;;;;;5017662;28;20135;-75
2022/06/11 05:46:17;;;;;;;20.63;4.15;;;16.20;99.90;;;;;;5034097;28;20068;-75
2022/06/11 05:48:47;;;;;;;22.55;4.38;;;16.20;99.90;;;;;;5017867;28;20049;-75
2022/06/11 05:51:20;;;;;;;27.13;5.13;;;16.20;99.90;;;;;;5017781;28;20413;-75
2022/06/11 05:53:47;;;;;;;18.83;4.32;;;16.20;99.90;;;;;;5033994;28;20041;-75
2022/06/11 05:56:13;;;;;;;19.45;4.40;;;16.30;99.90;;;;;;5033887;28;20048;-74
2022/06/11 05:58:43;;;;;;;22.10;4.75;;;16.30;99.90;;;;;;5034075;28;20041;-75
2022/06/11 06:01:09;;;;;;;19.83;5.15;;;16.40;99.90;;;;;;5033842;28;20044;-75
2022/06/11 06:03:35;;;;;;;19.75;4.65;;;16.40;99.90;;;;;;5017562;28;20041;-75
2022/06/11 06:06:01;;;;;;;23.48;4.68;;;16.50;99.90;;;;;;5033635;28;20044;-74
2022/06/11 06:08:26;;;;;;;22.85;4.85;;;16.60;99.90;;;;;;5017143;28;20041;-75
2022/06/11 06:10:52;;;;;;;17.40;4.25;;;16.60;99.90;;;;;;5033629;28;20049;-75
2022/06/11 06:16:02;;;;;;;23.45;5.07;;;16.70;99.90;;;;;;5033470;28;20041;-74
2022/06/11 06:18:27;;;;;;;17.88;4.53;;;16.70;99.90;;;;;;5033476;28;20120;-75
2022/06/11 06:20:53;;;;;;;23.20;4.65;;;16.80;99.90;;;;;;5033488;28;20037;-75
2022/06/11 06:23:19;;;;;;;24.42;5.10;;;16.80;99.90;;;;;;5017226;28;20042;-75
2022/06/11 06:25:44;;;;;;;23.98;5.38;;;16.80;99.90;;;;;;5032894;28;20460;-75
2022/06/11 06:28:10;;;;;;;21.02;4.53;;;16.90;99.90;;;;;;5033147;28;20045;-75
2022/06/11 06:30:36;;;;;;;23.15;4.93;;;16.90;99.90;;;;;;5016847;28;20045;-74
2022/06/11 06:33:01;;;;;;;23.05;4.97;;;17.00;99.90;;;;;;5033144;28;20045;-74
2022/06/11 06:35:27;;;;;;;22.23;5.20;;;17.00;99.90;;;;;;5033225;28;20034;-74
2022/06/11 06:37:53;;;;;;;21.73;4.72;;;17.10;99.90;;;;;;5033288;28;20041;-75
2022/06/11 06:40:19;;;;;;;25.48;6.00;;;17.10;99.90;;;;;;5033338;28;20132;-75
2022/06/11 06:42:45;;;;;;;24.00;5.63;;;17.10;99.90;;;;;;5033023;28;20091;-76
2022/06/11 06:45:10;;;;;;;20.58;4.68;;;17.20;99.90;;;;;;5016549;28;20136;-76
2022/06/11 06:47:36;;;;;;;22.60;4.70;;;17.30;99.90;;;;;;5057439;22;20056;-69
2022/06/11 06:50:02;;;;;;;21.02;4.85;;;17.30;99.90;;;;;;5032939;28;20044;-70
2022/06/11 06:52:28;;;;;;;25.60;5.85;;;17.40;99.90;;;;;;5016305;28;20042;-70
2022/06/11 06:54:54;;;;;;;25.17;5.55;;;17.40;99.90;;;;;;5032857;28;20132;-70
2022/06/11 06:57:19;;;;;;;25.10;5.75;;;17.60;99.90;;;;;;5032963;28;20128;-70
2022/06/11 06:59:45;;;;;;;21.65;5.53;;;17.60;99.90;;;;;;5032984;28;20444;-70
2022/06/11 07:02:12;;;;;;;22.60;5.18;;;17.70;99.90;;;;;;5032663;28;20104;-70
2022/06/11 07:04:39;;;;;;;22.58;5.82;;;17.70;99.90;;;;;;5032877;28;20053;-70
2022/06/11 07:07:05;;;;;;;23.23;5.18;;;17.80;99.90;;;;;;5032803;28;20051;-70
2022/06/11 07:09:31;;;;;;;22.80;5.43;;;17.90;99.90;;;;;;5032577;28;20485;-70
2022/06/11 07:11:57;;;;;;;20.00;5.00;;;18.00;99.90;;;;;;5032448;28;20052;-70
2022/06/11 07:14:23;;;;;;;25.10;5.63;;;18.10;99.90;;;;;;5032475;28;20116;-70
2022/06/11 07:16:54;;;;;;;25.33;5.85;;;18.10;99.90;;;;;;5032644;28;20103;-69
2022/06/11 07:19:26;;;;;;;22.13;5.53;;;18.20;99.90;;;;;;5016051;28;20052;-69
2022/06/11 07:21:56;;;;;;;24.08;5.25;;;18.30;99.90;;;;;;5032390;28;20505;-69
2022/06/11 07:24:27;;;;;;;29.73;5.70;;;18.40;99.90;;;;;;5032614;28;20171;-70
2022/06/11 07:26:58;;;;;;;24.50;5.20;;;18.40;99.90;;;;;;5032508;28;20091;-70
2022/06/11 07:29:44;;;;;;;24.38;5.50;;;18.40;99.90;;;;;;5032272;28;20034;-70
2022/06/11 07:32:14;;;;;;;24.40;5.45;;;18.50;99.90;;;;;;5032166;28;20046;-70
2022/06/11 07:34:41;;;;;;;23.48;5.32;;;18.50;99.90;;;;;;5032185;28;20045;-70
2022/06/11 07:37:07;;;;;;;23.27;5.72;;;18.60;99.90;;;;;;5031943;28;20053;-70
2022/06/11 07:39:33;;;;;;;26.45;5.60;;;18.80;99.90;;;;;;5032054;28;20037;-70
2022/06/11 07:41:59;;;;;;;25.48;5.78;;;18.90;99.90;;;;;;5032091;28;20045;-70
2022/06/11 07:44:24;;;;;;;23.15;5.45;;;18.90;99.90;;;;;;5033254;28;20128;-69
2022/06/11 07:46:50;;;;;;;21.17;4.70;;;18.90;99.90;;;;;;5032101;28;20929;-70
2022/06/11 07:49:16;;;;;;;25.45;5.78;;;19.00;99.90;;;;;;5031983;28;20555;-70
2022/06/11 07:51:41;;;;;;;28.75;5.53;;;19.10;99.90;;;;;;5031869;28;20072;-70
2022/06/11 07:54:07;;;;;;;21.10;4.90;;;19.20;99.90;;;;;;5031926;28;20088;-69
2022/06/11 07:56:32;;;;;;;24.70;5.60;;;19.30;99.90;;;;;;5031801;28;20091;-69
2022/06/11 07:58:58;;;;;;;20.23;5.15;;;19.20;99.90;;;;;;5031801;28;20037;-69
2022/06/11 08:01:24;;;;;;;27.02;5.43;;;19.20;99.90;;;;;;5031800;28;20413;-69
2022/06/11 08:03:49;;;;;;;22.65;5.53;;;19.30;99.90;;;;;;5031757;28;20068;-69
2022/06/11 08:06:15;;;;;;;23.60;5.68;;;19.40;99.90;;;;;;5031723;28;20072;-70
2022/06/11 08:08:41;;;;;;;21.75;5.10;;;19.60;99.90;;;;;;5031594;28;20132;-70
2022/06/11 08:11:07;;;;;;;26.25;5.43;;;19.80;99.90;;;;;;5031978;28;20547;-70
2022/06/11 08:13:33;;;;;;;26.88;5.72;;;19.80;99.90;;;;;;5032908;28;20046;-70
2022/06/11 08:16:00;;;;;;;22.58;5.75;;;19.90;99.90;;;;;;5031685;28;20046;-70
2022/06/11 08:18:27;;;;;;;24.55;5.22;;;20.00;99.90;;;;;;5015181;28;20045;-69
2022/06/11 08:20:53;;;;;;;24.50;5.20;;;20.00;99.90;;;;;;5031937;28;20045;-69
2022/06/11 08:23:21;;;;;;;28.67;5.05;;;20.10;99.90;;;;;;5031658;28;20037;-69
2022/06/11 08:25:46;;;;;;;20.33;4.80;;;20.20;99.90;;;;;;5031633;28;20056;-69
2022/06/11 08:28:14;;;;;;;20.92;5.05;;;20.10;99.90;;;;;;5031504;28;20046;-69
2022/06/11 08:30:40;;;;;;;24.40;4.68;;;20.00;99.90;;;;;;5031603;28;20041;-69
2022/06/11 08:33:07;;;;;;;26.90;5.18;;;20.10;99.90;;;;;;5031637;28;20125;-69
2022/06/11 08:35:34;;;;;;;27.58;5.68;;;20.20;99.90;;;;;;5032788;28;20037;-69
2022/06/11 08:38:00;;;;;;;20.58;4.85;;;20.30;99.90;;;;;;5031705;28;20073;-69
2022/06/11 08:40:37;;;;;;;28.65;5.55;;;20.40;99.90;;;;;;5031530;28;20076;-70
2022/06/11 08:43:15;;;;;;;23.98;5.07;;;20.40;99.90;;;;;;5015093;28;20095;-70
2022/06/11 08:45:45;;;;;;;28.90;6.35;;;20.40;99.90;;;;;;5033003;28;20038;-70
2022/06/11 08:48:26;;;;;;;26.08;6.15;;;20.30;99.90;;;;;;5031291;28;20585;-70
2022/06/11 08:51:03;;;;;;;24.23;5.75;;;20.20;99.90;;;;;;5034635;28;20034;-70
2022/06/11 08:53:32;;;;;;;26.85;4.90;;;20.10;99.90;;;;;;5035076;28;20447;-70
2022/06/11 08:55:58;;;;;;;29.38;5.55;;;20.00;99.90;;;;;;5035326;28;20037;-70
2022/06/11 08:58:54;;;;;;;24.10;5.82;;;20.00;99.90;;;;;;5035205;28;20393;-70
2022/06/11 09:01:45;;;;;;;18.15;4.85;;;20.20;99.90;;;;;;5035005;28;20037;-70
2022/06/11 09:04:21;;;;;;;24.30;4.93;;;20.50;99.90;;;;;;5018343;28;20520;-70
2022/06/11 09:06:55;;;;;;;21.15;5.22;;;20.60;99.90;;;;;;5034893;28;20041;-69
2022/06/11 09:09:32;;;;;;;22.05;4.82;;;20.80;99.90;;;;;;5034873;28;20038;-69
2022/06/11 09:12:16;;;;;;;27.90;5.78;;;21.00;99.90;;;;;;5018185;28;20382;-69
2022/06/11 09:14:48;;;;;;;21.00;5.07;;;21.30;99.90;;;;;;5018539;28;20040;-70
2022/06/11 09:17:50;;;;;;;20.33;4.97;;;21.40;99.90;;;;;;5034671;28;20490;-70
2022/06/11 09:20:17;;;;;;;22.45;4.97;;;21.40;99.90;;;;;;5021709;28;20055;-70
2022/06/11 09:23:01;;;;;;;17.30;4.15;;;21.40;99.90;;;;;;5018100;28;20048;-70
2022/06/11 09:25:35;;;;;;;22.08;4.57;;;21.60;99.90;;;;;;5034788;28;20136;-70
2022/06/11 09:28:11;;;;;;;23.13;4.68;;;21.70;99.90;;;;;;5034625;28;20128;-69
2022/06/11 09:30:41;;;;;;;15.27;3.92;;;21.90;99.90;;;;;;5034483;28;20045;-70
2022/06/11 09:33:13;;;;;;;20.17;5.28;;;22.00;99.90;;;;;;5034316;28;20056;-70
2022/06/11 09:35:45;;;;;;;17.58;4.38;;;22.10;99.90;;;;;;5034402;28;20071;-70
2022/06/11 09:38:34;;;;;;;16.67;4.10;;;22.30;99.90;;;;;;5035674;28;20033;-70
2022/06/11 09:41:39;;;;;;;15.32;4.03;;;22.50;99.90;;;;;;5034255;28;20033;-70
2022/06/11 09:44:17;;;;;;;19.05;3.85;;;22.40;94.50;;;;;;5034472;28;20485;-70
2022/06/11 09:47:01;;;;;;;13.60;3.63;;;22.10;99.90;;;;;;5033884;28;20045;-70
2022/06/11 09:49:51;;;;;;;14.18;3.42;;;21.70;99.90;;;;;;5017918;28;20049;-70
2022/06/11 09:52:37;;;;;;;14.45;3.72;;;21.60;99.90;;;;;;5034067;28;20049;-70
2022/06/11 09:55:45;;;;;;;14.73;3.78;;;21.40;99.90;;;;;;5034124;28;20077;-70
2022/06/11 09:58:31;;;;;;;23.45;4.20;;;21.10;99.90;;;;;;5034071;28;20049;-70
2022/06/11 10:01:04;;;;;;;19.80;4.05;;;21.20;99.90;;;;;;5032702;28;20041;-70
2022/06/11 10:03:48;;;;;;;16.67;4.28;;;21.50;99.90;;;;;;5034666;28;20050;-70
2022/06/11 10:06:26;;;;;;;18.80;3.75;;;21.80;99.90;;;;;;5033838;28;20460;-70
2022/06/11 10:09:05;;;;;;;13.48;3.70;;;22.10;99.90;;;;;;5035577;28;20076;-70
2022/06/11 10:11:45;;;;;;;21.02;4.03;;;22.50;99.90;;;;;;5017485;28;20041;-70
2022/06/11 10:14:28;;;;;;;15.73;3.03;;;22.80;99.90;;;;;;5033856;28;20056;-70
2022/06/11 10:17:09;;;;;;;16.02;3.42;;;22.80;99.90;;;;;;5033730;28;20052;-70
2022/06/11 10:19:47;;;;;;;16.58;3.47;;;22.80;99.90;;;;;;5033835;28;20091;-70
2022/06/11 10:22:46;;;;;;;17.65;3.45;;;23.00;99.90;;;;;;5033796;28;20033;-70
2022/06/11 10:25:18;;;;;;;15.45;3.10;;;23.10;99.90;;;;;;5029244;28;20046;-70
2022/06/11 10:28:00;;;;;;;13.93;3.60;;;23.10;98.00;;;;;;5016782;28;20529;-70
2022/06/11 10:30:49;;;;;;;10.98;2.88;;;23.10;95.20;;;;;;5033409;28;20044;-70
2022/06/11 10:33:20;;;;;;;17.15;3.80;;;23.10;97.40;;;;;;5033203;28;20099;-70
2022/06/11 10:35:57;;;;;;;15.88;3.20;;;22.90;97.90;;;;;;5033223;28;20052;-70
2022/06/11 10:38:51;;;;;;;15.63;3.45;;;22.80;92.50;;;;;;5016647;28;20037;-70
2022/06/11 10:41:27;;;;;;;16.75;3.08;;;22.80;92.10;;;;;;5033167;28;20041;-70
2022/06/11 10:44:14;;;;;;;15.57;3.60;;;22.90;93.40;;;;;;5033122;28;20092;-70
2022/06/11 10:46:40;;;;;;;16.00;3.60;;;22.90;82.40;;;;;;5032835;28;20076;-70
2022/06/11 10:49:16;;;;;;;11.93;3.25;;;22.90;85.20;;;;;;5033139;28;20080;-70
2022/06/11 10:51:48;;;;;;;10.00;2.72;;;23.10;92.00;;;;;;5034470;28;20077;-70
2022/06/11 10:54:22;;;;;;;16.75;3.58;;;23.30;80.80;;;;;;5032893;28;20077;-70
2022/06/11 10:56:51;;;;;;;13.05;3.20;;;23.40;83.40;;;;;;5032853;28;20052;-70
2022/06/11 10:59:34;;;;;;;12.65;3.20;;;23.50;76.50;;;;;;5032756;28;20053;-70
2022/06/11 11:02:03;;;;;;;;;;;23.60;74.80;;;;;;5033151;28;20566;-70
2022/06/11 11:05:00;;;;;;;12.93;3.30;;;23.70;74.70;;;;;;5016238;28;19917;-70
2022/06/11 11:07:51;;;;;;;16.77;3.67;;;24.00;76.30;;;;;;5032810;28;20038;-70
2022/06/11 11:10:39;;;;;;;13.50;3.38;;;24.20;80.00;;;;;;5032879;28;20099;-70
2022/06/11 11:13:20;;;;;;;13.15;3.13;;;24.20;70.30;;;;;;5032143;28;20042;-70
2022/06/11 11:15:54;;;;;;;16.08;3.72;;;24.30;76.80;;;;;;5032673;28;20041;-70
2022/06/11 11:18:23;;;;;;;17.25;3.78;;;24.30;71.30;;;;;;5032390;28;20052;-70
2022/06/11 11:20:51;;;;;;;19.52;3.80;;;24.30;71.40;;;;;;5032657;28;20095;-70
2022/06/11 11:23:25;;;;;;;13.63;2.90;;;24.50;74.30;;;;;;5032345;28;20084;-70
2022/06/11 11:25:59;;;;;;;12.90;3.03;;;24.60;81.60;;;;;;5032629;28;20041;-70
2022/06/11 11:28:38;;;;;;;18.60;3.20;;;24.70;71.00;;;;;;5032269;28;20049;-70
2022/06/11 11:31:15;;;;;;;14.93;3.45;;;24.80;70.30;;;;;;5032324;28;20045;-70
2022/06/11 11:33:56;;;;;;;12.23;3.05;;;24.80;66.60;;;;;;5032192;28;20056;-70
2022/06/11 11:36:26;;;;;;;14.70;3.25;;;24.90;63.00;;;;;;5032208;28;20041;-70
2022/06/11 11:39:13;;;;;;;9.85;3.15;;;25.00;70.80;;;;;;5015659;28;20041;-70
2022/06/11 11:42:02;;;;;;;15.50;3.95;;;25.10;71.10;;;;;;5032071;28;20072;-70
2022/06/11 11:44:34;;;;;;;12.52;3.33;;;25.10;66.20;;;;;;5032034;28;20041;-70
2022/06/11 11:47:02;;;;;;;13.90;3.53;;;25.10;67.40;;;;;;5032099;28;20444;-70
2022/06/11 11:49:31;;;;;;;10.30;3.20;;;25.40;68.20;;;;;;5032281;28;20300;-70
2022/06/11 11:52:14;;;;;;;12.35;3.47;;;25.40;63.10;;;;;;5031861;28;20425;-70
2022/06/11 11:55:15;;;;;;;11.52;3.15;;;25.50;58.90;;;;;;5015503;28;20080;-70
2022/06/11 11:57:40;;;;;;;13.43;3.15;;;25.50;62.10;;;;;;5031853;28;20041;-70
2022/06/11 12:00:27;;;;;;;12.35;3.15;;;25.50;64.10;;;;;;5033640;28;20103;-70
2022/06/11 12:02:57;;;;;;;15.43;2.83;;;25.50;59.40;;;;;;5031860;28;20556;-70
2022/06/11 12:05:36;;;;;;;14.32;3.42;;;25.60;62.40;;;;;;5031901;28;20060;-70
2022/06/11 12:08:14;;;;;;;13.75;3.40;;;25.50;57.50;;;;;;5032294;28;20049;-70
2022/06/11 12:10:48;;;;;;;12.63;3.22;;;25.40;57.80;;;;;;5033638;28;20145;-70
2022/06/11 12:13:27;;;;;;;13.93;2.83;;;25.30;57.30;;;;;;5031706;28;20045;-70
2022/06/11 12:15:59;;;;;;;16.50;3.70;;;25.30;56.10;;;;;;5015289;28;20095;-70
2022/06/11 12:18:37;;;;;;;14.60;3.33;;;25.50;55.60;;;;;;5031676;28;20071;-70
2022/06/11 12:21:08;;;;;;;12.10;3.15;;;25.60;58.40;;;;;;5031993;28;20489;-70
2022/06/11 12:23:44;;;;;;;14.43;3.10;;;25.70;59.20;;;;;;5031665;28;20481;-70
2022/06/11 12:26:28;;;;;;;17.98;4.05;;;25.80;60.00;;;;;;5019051;28;20132;-70
2022/06/11 12:29:21;;;;;;;17.70;3.58;;;25.90;59.00;;;;;;5035647;28;20037;-70
2022/06/11 12:31:46;;;;;;;;;;;25.90;60.20;;;;;;5035995;28;20054;-70
2022/06/11 12:34:18;;;;;;;10.38;3.03;;;25.80;55.00;;;;;;5035439;28;19921;-70
2022/06/11 12:36:56;;;;;;;13.80;3.72;;;25.80;59.80;;;;;;5035455;28;20050;-70
2022/06/11 12:39:43;;;;;;;12.43;3.53;;;26.00;58.10;;;;;;5035479;28;20386;-70
2022/06/11 12:42:37;;;;;;;13.15;3.28;;;26.10;59.40;;;;;;5035618;28;20110;-70
2022/06/11 12:45:15;;;;;;;18.63;4.13;;;26.30;58.60;;;;;;5035342;28;20508;-70
2022/06/11 12:48:07;;;;;;;11.75;2.88;;;26.40;60.50;;;;;;5035585;28;20033;-70
2022/06/11 12:50:58;;;;;;;14.75;3.55;;;26.50;59.00;;;;;;5035245;28;20041;-69
2022/06/11 12:53:45;;;;;;;14.70;3.70;;;26.50;58.20;;;;;;5035128;28;20049;-69
2022/06/11 12:56:32;;;;;;;13.50;3.25;;;26.60;56.20;;;;;;5035042;28;20464;-69
2022/06/11 12:59:26;;;;;;;14.77;3.58;;;26.50;55.20;;;;;;5035028;28;20048;-69
2022/06/11 13:02:02;;;;;;;13.50;3.05;;;26.60;53.50;;;;;;5034977;28;20045;-69
2022/06/11 13:04:44;;;;;;;12.20;3.60;;;26.50;54.70;;;;;;5018430;28;20567;-69
2022/06/11 13:07:10;;;;;;;;;;;26.30;52.90;;;;;;5035580;28;20510;-69
2022/06/11 13:09:46;;;;;;;13.68;3.70;;;26.20;52.30;;;;;;5034846;28;20404;-69
2022/06/11 13:12:56;;;;;;;17.15;3.42;;;26.10;57.00;;;;;;5035575;28;20456;-69
2022/06/11 13:15:59;;;;;;;12.88;2.67;;;26.10;54.10;;;;;;4999432;28;20143;-69